Time;durP1;ratioP1;P1;durP2;ratioP2;P2;SDS_P1;SDS_P2;PMS_P1;PMS_P2;Temp;Humidity;BMP_temperature;BMP_pressure;BME280_temperature;BME280_humidity;BME280_pressure;Samples;Min_cycle;Max_cycle;Signal;HPM_P1;HPM_P2
2022/09/20 00:00:50;;;;;;;5.63;3.40;;;;;;;14.85;71.11;100432.72;4509748;22;20312;-90
2022/09/20 01:38:44;;;;;;;4.80;3.03;;;;;;;14.28;89.29;100461.25;4655394;22;20296;-88
2022/09/20 02:47:24;;;;;;;10.73;4.70;;;;;;;13.22;100.00;100468.78;5711223;22;20038;-86
2022/09/20 02:50:26;;;;;;;10.20;4.95;;;;;;;13.20;100.00;100468.13;5003039;28;20034;-85
2022/09/20 02:57:28;;;;;;;10.52;4.47;;;;;;;12.94;100.00;100476.47;5038824;28;20045;-87
2022/09/20 03:01:04;;;;;;;10.13;4.63;;;;;;;13.00;100.00;100478.41;5038451;28;20049;-88
2022/09/20 03:04:16;;;;;;;8.55;4.07;;;;;;;12.90;100.00;100491.09;4927720;28;20136;-87
2022/09/20 03:39:36;;;;;;;9.37;4.57;;;;;;;13.24;100.00;100493.38;3644248;26;20293;-86
2022/09/20 03:46:17;;;;;;;7.32;3.53;;;;;;;13.76;100.00;100486.19;5036649;28;20068;-86
2022/09/20 03:49:55;;;;;;;10.48;4.47;;;;;;;13.90;99.67;100490.69;5034595;28;20053;-87
2022/09/20 03:53:26;;;;;;;8.90;3.83;;;;;;;13.91;99.78;100491.53;5035784;28;20029;-89
2022/09/20 03:56:57;;;;;;;12.00;4.32;;;;;;;13.57;100.00;100491.22;5032662;28;20046;-86
2022/09/20 04:07:57;;;;;;;8.83;3.67;;;;;;;12.99;100.00;100499.88;5096439;23;20292;-85
2022/09/20 04:11:07;;;;;;;10.02;4.22;;;;;;;13.01;100.00;100503.16;5036379;28;20040;-87
2022/09/20 04:14:33;;;;;;;11.15;4.05;;;;;;;12.85;100.00;100510.28;5069003;23;20030;-85
2022/09/20 04:23:05;;;;;;;9.00;4.27;;;;;;;12.85;100.00;100504.97;3137000;23;20069;-89
2022/09/20 04:26:08;;;;;;;11.80;4.30;;;;;;;12.85;100.00;100507.63;5037360;28;20281;-85
2022/09/20 04:39:05;;;;;;;11.75;4.78;;;;;;;13.23;100.00;100513.00;5018329;28;20057;-83
2022/09/20 04:45:02;;;;;;;11.43;3.87;;;;;;;13.08;100.00;100526.25;5215751;23;20056;-89
2022/09/20 04:48:42;;;;;;;13.55;5.18;;;;;;;13.05;100.00;100525.75;5038810;28;20044;-82
2022/09/20 04:51:46;;;;;;;14.30;5.18;;;;;;;12.85;100.00;100530.72;5038394;28;20046;-83
2022/09/20 04:58:36;;;;;;;8.63;4.13;;;;;;;13.01;100.00;100535.09;5039721;28;20038;-85
2022/09/20 05:04:39;;;;;;;12.07;4.50;;;;;;;13.37;100.00;100538.84;3187642;26;20046;-84
2022/09/20 05:11:08;;;;;;;10.63;4.40;;;;;;;13.24;100.00;100534.13;5031739;28;20065;-86
2022/09/20 05:22:21;;;;;;;9.40;4.80;;;;;;;13.31;100.00;100550.19;5570733;22;20623;-86
2022/09/20 05:25:52;;;;;;;17.83;5.35;;;;;;;13.35;100.00;100549.69;5035364;28;20301;-84
2022/09/20 05:29:08;;;;;;;15.48;5.40;;;;;;;14.02;99.43;100557.66;4994109;28;20061;-88
2022/09/20 05:32:17;;;;;;;12.40;4.93;;;;;;;14.64;93.74;100552.78;4997938;28;20050;-84
2022/09/20 05:35:26;;;;;;;17.52;4.75;;;;;;;14.76;91.99;100561.94;5037908;28;20046;-85
2022/09/20 05:38:15;;;;;;;13.68;4.70;;;;;;;14.65;92.53;100565.06;5045187;28;20038;-86
2022/09/20 05:41:30;;;;;;;16.55;5.03;;;;;;;15.76;83.89;100565.38;5055705;28;20077;-82
2022/09/20 05:44:24;;;;;;;19.23;4.72;;;;;;;16.20;80.57;100567.72;4977352;28;20043;-82
2022/09/20 05:47:22;;;;;;;7.35;4.60;;;;;;;16.50;76.77;100576.31;4994066;28;20074;-80
2022/09/20 05:50:22;;;;;;;19.58;4.25;;;;;;;16.84;74.31;100580.75;5024670;28;20050;-79
2022/09/20 05:53:22;;;;;;;13.95;4.40;;;;;;;16.73;76.21;100584.88;5030038;28;20050;-79
2022/09/20 05:55:54;;;;;;;13.40;4.38;;;;;;;17.76;68.05;100583.63;5031968;28;20044;-80
2022/09/20 05:58:54;;;;;;;9.88;3.63;;;;;;;18.04;65.71;100594.91;5029631;28;20038;-81
2022/09/20 06:01:33;;;;;;;9.10;3.92;;;;;;;17.36;70.13;100593.47;5033645;28;20041;-81
2022/09/20 06:04:28;;;;;;;9.40;4.28;;;;;;;17.73;66.54;100598.25;5033854;28;20038;-79
2022/09/20 06:07:13;;;;;;;8.13;4.15;;;;;;;17.17;72.11;100603.09;5024019;28;20050;-81
2022/09/20 06:10:12;;;;;;;13.02;4.50;;;;;;;17.04;71.39;100603.91;5030983;28;20041;-79
2022/09/20 06:13:19;;;;;;;11.35;4.97;;;;;;;16.91;72.64;100614.56;5027500;28;20044;-80
2022/09/20 06:16:05;;;;;;;14.43;4.30;;;;;;;17.58;69.67;100611.03;5021820;28;20042;-79
2022/09/20 06:18:46;;;;;;;9.80;4.05;;;;;;;16.67;74.52;100612.41;5029206;28;20037;-80
2022/09/20 06:21:18;;;;;;;14.82;4.38;;;;;;;17.23;69.43;100617.56;5032904;28;20052;-80
2022/09/20 06:23:50;;;;;;;12.38;5.03;;;;;;;17.50;68.57;100619.22;5053899;23;20054;-83
2022/09/20 06:26:25;;;;;;;12.45;5.07;;;;;;;17.72;68.84;100623.41;5033959;28;20060;-82
2022/09/20 06:29:19;;;;;;;14.13;4.75;;;;;;;17.37;69.94;100620.03;5034339;28;20046;-81
2022/09/20 06:31:48;;;;;;;13.52;5.30;;;;;;;17.51;69.93;100620.88;5031360;28;20068;-81
2022/09/20 06:34:22;;;;;;;14.52;4.68;;;;;;;17.20;72.42;100634.84;5030361;28;20050;-81
2022/09/20 06:42:55;;;;;;;10.50;4.25;;;;;;;17.99;67.08;100634.97;5028356;28;20038;-80
2022/09/20 06:45:30;;;;;;;8.60;4.35;;;;;;;17.50;72.47;100632.63;5033688;28;20098;-82
2022/09/20 06:48:01;;;;;;;8.23;4.50;;;;;;;17.88;72.26;100628.38;5030223;28;20042;-83
2022/09/20 06:50:34;;;;;;;12.38;4.90;;;;;;;18.50;66.59;100632.41;5018462;28;20060;-81
2022/09/20 06:53:10;;;;;;;10.55;4.28;;;;;;;18.13;70.07;100643.81;5032404;28;20030;-83
2022/09/20 06:56:07;;;;;;;11.85;4.20;;;;;;;18.76;66.43;100648.44;5034609;28;20172;-80
2022/09/20 06:58:35;;;;;;;11.80;4.40;;;;;;;19.02;65.14;100637.56;5033255;28;20034;-81
2022/09/20 07:01:05;;;;;;;10.43;3.50;;;;;;;19.07;66.10;100639.63;5032992;28;20042;-83
2022/09/20 07:03:57;;;;;;;9.85;4.22;;;;;;;19.08;67.04;100642.13;5032972;28;20117;-82
2022/09/20 07:06:25;;;;;;;11.45;4.63;;;;;;;18.47;68.92;100643.53;5032140;28;20040;-81
2022/09/20 07:08:54;;;;;;;6.28;3.17;;;;;;;18.67;70.36;100648.88;5017489;28;20046;-84
2022/09/20 07:11:22;;;;;;;9.82;3.72;;;;;;;19.40;65.50;100645.69;5015981;28;20045;-82
2022/09/20 07:13:53;;;;;;;8.95;4.32;;;;;;;20.10;62.00;100641.00;5033508;28;20049;-81
2022/09/20 07:16:22;;;;;;;13.30;4.25;;;;;;;19.39;67.59;100648.56;5016386;28;20118;-82
2022/09/20 07:19:00;;;;;;;7.90;4.10;;;;;;;20.10;62.75;100655.28;5033314;28;20042;-80
2022/09/20 07:21:30;;;;;;;14.85;4.00;;;;;;;19.74;63.16;100651.66;5031114;28;20046;-81
2022/09/20 07:24:00;;;;;;;8.63;3.35;;;;;;;20.06;62.91;100656.75;5032098;28;20085;-84
2022/09/20 07:27:06;;;;;;;6.43;3.10;;;;;;;19.95;65.17;100660.16;5031874;28;20058;-84
2022/09/20 07:29:34;;;;;;;10.60;4.10;;;;;;;19.19;68.33;100666.66;5032127;28;20038;-82
2022/09/20 07:32:04;;;;;;;8.55;3.40;;;;;;;19.78;65.91;100661.75;5031265;28;20030;-82
2022/09/20 07:34:30;;;;;;;10.38;3.72;;;;;;;20.61;62.87;100665.75;5032917;28;20045;-83
2022/09/20 07:37:00;;;;;;;10.52;3.88;;;;;;;20.29;64.67;100668.78;5017479;28;20370;-82
2022/09/20 07:39:28;;;;;;;12.48;3.42;;;;;;;20.04;67.42;100666.09;5032714;28;20098;-84
2022/09/20 07:42:04;;;;;;;15.02;2.60;;;;;;;20.73;63.53;100673.91;5032723;28;20029;-81
2022/09/20 07:44:42;;;;;;;10.40;3.70;;;;;;;20.92;61.95;100672.84;5033595;28;20034;-83
2022/09/20 07:47:32;;;;;;;9.43;2.97;;;;;;;21.76;59.39;100671.09;5032299;28;20300;-83
2022/09/20 07:50:00;;;;;;;10.97;3.43;;;;;;;22.29;55.76;100674.59;5031925;28;20092;-80
2022/09/20 07:52:27;;;;;;;6.68;2.97;;;;;;;22.80;54.37;100687.41;5032632;28;20281;-83
2022/09/20 07:54:53;;;;;;;6.15;2.65;;;;;;;21.31;58.96;100689.63;5014368;28;20401;-80
2022/09/20 07:57:35;;;;;;;12.30;2.70;;;;;;;21.51;59.83;100687.47;5036447;28;20030;-86
2022/09/20 08:00:10;;;;;;;9.57;3.15;;;;;;;21.07;63.58;100686.78;5036685;28;20093;-85
2022/09/20 08:02:59;;;;;;;11.53;3.40;;;;;;;20.83;62.12;100695.78;5035777;28;20034;-83
2022/09/20 08:05:26;;;;;;;11.60;3.10;;;;;;;21.60;61.28;100691.47;5002825;28;20052;-84
2022/09/20 08:07:55;;;;;;;11.52;2.63;;;;;;;21.87;58.29;100692.72;5038339;28;20014;-83
2022/09/20 08:10:21;;;;;;;11.13;2.85;;;;;;;20.98;62.94;100693.50;5019892;28;20045;-84
2022/09/20 08:12:49;;;;;;;14.82;3.05;;;;;;;21.50;60.98;100704.69;5036396;28;20061;-85
2022/09/20 08:15:19;;;;;;;10.98;3.00;;;;;;;21.82;59.20;100698.00;5029009;28;20037;-80
2022/09/20 08:17:56;;;;;;;15.52;2.92;;;;;;;22.60;55.89;100703.13;5034719;28;20022;-81
2022/09/20 08:20:35;;;;;;;12.07;2.33;;;;;;;22.56;54.48;100713.59;5025803;28;20030;-83
2022/09/20 08:23:21;;;;;;;9.98;2.60;;;;;;;22.01;56.42;100704.97;5019188;28;20019;-83
2022/09/20 08:25:55;;;;;;;8.38;2.97;;;;;;;21.92;56.68;100714.47;5018121;28;20064;-86
2022/09/20 08:28:32;;;;;;;17.73;3.00;;;;;;;21.43;59.69;100717.44;5036704;28;20038;-86
2022/09/20 08:34:02;;;;;;;9.90;2.97;;;;;;;21.72;59.02;100708.50;3044500;26;20064;-83
2022/09/20 08:36:44;;;;;;;10.90;2.58;;;;;;;22.48;56.51;100711.22;5056729;28;20026;-84
2022/09/20 08:39:44;;;;;;;12.98;3.28;;;;;;;23.82;50.73;100712.66;5058498;28;20087;-84
2022/09/20 08:42:37;;;;;;;11.02;2.90;;;;;;;23.66;50.72;100706.13;5049465;28;20061;-82
2022/09/20 08:45:44;;;;;;;7.15;3.08;;;;;;;23.73;50.34;100716.81;5038764;28;20038;-83
2022/09/20 08:48:32;;;;;;;10.45;2.78;;;;;;;24.42;48.40;100712.03;5033424;28;20045;-82
2022/09/20 08:51:07;;;;;;;11.90;3.17;;;;;;;24.48;48.00;100714.59;5037082;28;20049;-83
2022/09/20 08:53:35;;;;;;;11.10;2.67;;;;;;;23.41;51.46;100711.09;5045327;28;20022;-82
2022/09/20 08:56:39;;;;;;;15.48;3.42;;;;;;;23.32;51.88;100706.28;5027053;28;20057;-83
2022/09/20 08:59:24;;;;;;;11.82;3.35;;;;;;;24.21;49.94;100704.66;5056828;28;20034;-81
2022/09/20 09:02:23;;;;;;;12.00;3.10;;;;;;;23.80;50.26;100711.28;5056169;28;20097;-82
2022/09/20 09:05:30;;;;;;;16.23;3.58;;;;;;;23.36;52.67;100700.16;5056850;28;20039;-81
2022/09/20 09:08:09;;;;;;;16.20;3.35;;;;;;;23.12;53.52;100707.53;5051302;28;20038;-83
2022/09/20 09:10:41;;;;;;;11.45;3.30;;;;;;;23.44;51.97;100707.06;5035908;28;20501;-83
2022/09/20 09:13:23;;;;;;;12.35;3.08;;;;;;;23.99;50.38;100713.50;5043521;28;20079;-84
2022/09/20 09:16:01;;;;;;;9.48;3.42;;;;;;;23.98;50.76;100700.19;5048365;28;20057;-83
2022/09/20 09:18:54;;;;;;;15.68;3.30;;;;;;;23.34;52.56;100698.72;5030054;28;20049;-81
2022/09/20 09:21:52;;;;;;;10.35;3.15;;;;;;;23.11;55.40;100697.75;5039375;28;20200;-84
2022/09/20 09:24:26;;;;;;;11.75;2.97;;;;;;;23.70;52.91;100684.81;5023051;28;20026;-84
2022/09/20 09:27:24;;;;;;;16.15;3.33;;;;;;;24.50;50.07;100684.50;5021983;28;20081;-85
2022/09/20 09:29:54;;;;;;;10.48;3.75;;;;;;;24.41;49.78;100694.13;5037746;28;20029;-81
2022/09/20 09:32:45;;;;;;;14.25;3.55;;;;;;;23.91;51.36;100699.53;5036454;28;20026;-84
2022/09/20 09:35:26;;;;;;;10.25;3.22;;;;;;;24.48;49.67;100686.66;5033703;28;20045;-85
2022/09/20 09:38:03;;;;;;;6.30;2.60;;;;;;;25.07;48.62;100687.72;5038143;28;20049;-82
2022/09/20 09:40:57;;;;;;;8.38;3.25;;;;;;;25.22;47.13;100689.81;5037475;28;20033;-82
2022/09/20 09:43:44;;;;;;;8.60;3.10;;;;;;;24.70;47.91;100687.50;5022117;28;20034;-84
2022/09/20 09:46:39;;;;;;;13.65;4.03;;;;;;;25.06;47.40;100692.34;5009693;28;20020;-83
2022/09/20 09:49:24;;;;;;;10.50;3.22;;;;;;;25.68;45.60;100689.25;5029599;28;20042;-82
2022/09/20 09:52:38;;;;;;;15.05;3.67;;;;;;;25.33;45.34;100686.94;5028245;28;20049;-83
2022/09/20 09:55:16;;;;;;;11.68;3.88;;;;;;;25.20;46.95;100681.91;5032498;28;20053;-82
2022/09/20 09:58:20;;;;;;;13.50;3.45;;;;;;;25.94;44.95;100669.38;5035543;28;20056;-84
2022/09/20 10:01:30;;;;;;;9.77;3.10;;;;;;;26.88;43.77;100666.72;5078898;23;20053;-84
2022/09/20 10:04:23;;;;;;;9.98;3.33;;;;;;;27.43;41.67;100670.72;5036894;28;20048;-85
2022/09/20 10:07:26;;;;;;;8.73;2.92;;;;;;;26.06;43.72;100656.44;5036190;28;20061;-84
2022/09/20 10:10:30;;;;;;;8.85;3.50;;;;;;;26.11;43.33;100661.91;5036586;28;20057;-82
2022/09/20 10:13:25;;;;;;;12.93;3.80;;;;;;;25.86;44.49;100653.56;5037553;28;20049;-86
2022/09/20 10:16:19;;;;;;;8.15;3.30;;;;;;;26.07;44.69;100647.22;5036505;28;20098;-83
2022/09/20 10:19:22;;;;;;;7.82;3.75;;;;;;;26.09;44.05;100639.59;5036087;28;20057;-84
2022/09/20 10:22:20;;;;;;;12.85;3.72;;;;;;;26.46;43.09;100641.50;5035409;28;20037;-83
2022/09/20 10:25:36;;;;;;;14.88;3.38;;;;;;;27.04;41.34;100638.53;5035732;28;20481;-84
2022/09/20 10:28:36;;;;;;;8.75;3.55;;;;;;;26.85;42.10;100629.19;5036138;28;20101;-85
2022/09/20 10:31:22;;;;;;;9.10;3.80;;;;;;;27.16;41.72;100636.38;5034067;28;20076;-84
2022/09/20 10:34:04;;;;;;;14.85;3.80;;;;;;;26.73;41.75;100640.28;5036039;28;20038;-83
2022/09/20 10:43:58;;;;;;;6.85;3.22;;;;;;;27.06;40.87;100625.47;5025831;28;20054;-84
2022/09/20 10:46:56;;;;;;;12.52;3.72;;;;;;;27.42;41.19;100620.91;5031548;28;20053;-83
2022/09/20 10:50:00;;;;;;;11.73;3.95;;;;;;;26.39;43.50;100621.88;5013253;28;20042;-83
2022/09/20 10:52:54;;;;;;;6.13;3.13;;;;;;;27.03;42.40;100619.72;5007709;28;20053;-83
2022/09/20 10:56:09;;;;;;;6.22;3.35;;;;;;;27.49;41.04;100617.94;5032826;28;20041;-84
2022/09/20 10:58:37;;;;;;;5.75;3.00;;;;;;;28.25;39.22;100616.00;5031412;28;20066;-83
2022/09/20 11:01:40;;;;;;;10.50;3.22;;;;;;;27.55;40.73;100616.84;5015485;28;20445;-84
2022/09/20 11:04:40;;;;;;;8.68;3.05;;;;;;;27.22;40.95;100610.78;5032725;28;20112;-85
2022/09/20 11:07:43;;;;;;;9.45;3.15;;;;;;;28.90;37.54;100627.81;5016510;28;20041;-84
2022/09/20 11:10:35;;;;;;;5.13;2.00;;;;;;;27.75;38.48;100627.75;5034156;28;20093;-85
2022/09/20 11:13:33;;;;;;;9.45;2.78;;;;;;;28.81;37.04;100622.09;5036947;28;20109;-83
2022/09/20 11:16:52;;;;;;;10.02;3.50;;;;;;;28.80;37.19;100619.66;5033716;28;20041;-84
2022/09/20 11:19:50;;;;;;;10.30;3.00;;;;;;;29.53;35.38;100623.34;5034909;28;20048;-84
2022/09/20 11:22:52;;;;;;;9.27;2.75;;;;;;;28.46;37.34;100617.59;5035190;28;20049;-83
2022/09/20 11:25:54;;;;;;;8.68;3.10;;;;;;;28.81;36.40;100613.09;5034532;28;20105;-81
2022/09/20 11:28:55;;;;;;;7.88;2.55;;;;;;;27.53;38.19;100614.41;5035958;28;20024;-83
2022/09/20 11:32:13;;;;;;;7.80;2.63;;;;;;;28.88;36.21;100608.97;5036343;28;20037;-87
2022/09/20 11:35:24;;;;;;;10.30;2.53;;;;;;;29.28;35.95;100609.84;5037155;28;20102;-89
2022/09/20 11:38:32;;;;;;;7.90;2.72;;;;;;;29.96;34.40;100597.03;5019422;28;20113;-83
2022/09/20 11:41:36;;;;;;;9.02;2.25;;;;;;;29.88;34.36;100593.00;5022591;28;20034;-87
2022/09/20 11:44:50;;;;;;;7.45;2.50;;;;;;;30.03;34.13;100598.31;5201331;22;20057;-88
2022/09/20 11:47:53;;;;;;;8.48;2.60;;;;;;;29.99;33.90;100586.34;5024231;28;20033;-85
2022/09/20 11:51:25;;;;;;;10.93;3.05;;;;;;;28.75;36.08;100590.50;5026311;28;20054;-86
2022/09/20 11:54:39;;;;;;;7.82;2.22;;;;;;;26.98;39.43;100592.53;5040719;28;20053;-86
2022/09/20 12:11:10;;;;;;;8.30;2.28;;;;;;;23.89;48.32;100545.50;4940959;26;20043;-84
2022/09/20 12:14:20;;;;;;;9.13;3.10;;;;;;;23.68;49.42;100549.78;5013124;28;20027;-83
2022/09/20 12:17:51;;;;;;;5.30;1.95;;;;;;;23.32;48.28;100538.59;5254143;22;20121;-84
2022/09/20 12:21:09;;;;;;;7.25;2.10;;;;;;;22.94;51.02;100537.38;5039074;28;20485;-80
2022/09/20 12:23:39;;;;;;;11.50;1.88;;;;;;;23.24;50.58;100526.28;5038406;28;20057;-81
2022/09/20 12:26:54;;;;;;;11.15;2.67;;;;;;;22.87;51.15;100527.81;5037176;28;20113;-81
2022/09/20 12:29:34;;;;;;;8.27;1.60;;;;;;;22.89;52.31;100512.97;5035453;28;20050;-81
2022/09/20 12:32:45;;;;;;;3.40;1.58;;;;;;;23.11;48.76;100519.31;5037301;28;20048;-82
2022/09/20 12:35:37;;;;;;;6.90;1.58;;;;;;;23.21;49.72;100521.38;5152244;23;20053;-83
2022/09/20 12:38:26;;;;;;;4.20;1.70;;;;;;;23.08;49.54;100513.56;5035573;28;20034;-81
2022/09/20 12:41:12;;;;;;;7.65;2.10;;;;;;;23.36;48.59;100518.94;5035474;28;20038;-84
2022/09/20 12:46:51;;;;;;;7.47;1.73;;;;;;;22.70;50.40;100519.66;4246858;26;20034;-82
2022/09/20 12:53:22;;;;;;;14.25;2.03;;;;;;;22.92;50.13;100508.97;5019055;28;20077;-85
2022/09/20 12:56:47;;;;;;;8.63;1.98;;;;;;;23.13;49.56;100498.25;4997953;28;20115;-85
2022/09/20 13:08:28;;;;;;;7.72;1.60;;;;;;;22.96;48.12;100486.63;5170221;23;20054;-88
2022/09/20 13:12:35;;;;;;;5.80;0.95;;;;;;;22.82;44.02;100482.56;4937945;29;20079;-87
2022/09/20 13:16:05;;;;;;;6.50;1.25;;;;;;;22.73;47.28;100478.63;4899529;29;20029;-86
2022/09/20 13:19:19;;;;;;;4.20;1.35;;;;;;;22.88;47.90;100483.47;4883202;29;20029;-91
2022/09/20 13:21:59;;;;;;;3.90;1.10;;;;;;;22.97;45.72;100480.13;5059850;23;20528;-84
2022/09/20 13:25:43;;;;;;;;;;;;;;;22.88;46.29;100465.38;4969197;29;20051;-83
2022/09/20 13:28:50;;;;;;;3.78;1.15;;;;;;;23.12;45.69;100466.06;4957526;29;19925;-83
2022/09/20 13:31:41;;;;;;;4.05;1.10;;;;;;;23.05;45.27;100468.09;4957979;29;20047;-82
2022/09/20 13:34:27;;;;;;;6.35;1.15;;;;;;;23.11;44.53;100470.66;4971101;29;20039;-82
2022/09/20 13:37:06;;;;;;;5.18;1.40;;;;;;;22.89;44.55;100467.03;5007754;28;20050;-84
2022/09/20 13:40:13;;;;;;;6.90;0.95;;;;;;;22.96;44.43;100464.19;4999261;28;20054;-82
2022/09/20 13:42:42;;;;;;;5.03;1.30;;;;;;;22.81;46.14;100464.72;4996960;28;20018;-84
2022/09/20 13:45:34;;;;;;;5.75;1.10;;;;;;;22.90;46.19;100459.75;4998148;28;20038;-85
2022/09/20 13:48:36;;;;;;;7.05;1.38;;;;;;;22.65;47.62;100451.97;5022796;23;20026;-85
2022/09/20 13:51:35;;;;;;;6.97;1.20;;;;;;;22.64;49.31;100439.50;5011623;28;20030;-87
2022/09/20 13:54:42;;;;;;;4.97;1.30;;;;;;;22.59;50.48;100448.38;5027943;22;20045;-84
2022/09/20 13:57:24;;;;;;;6.65;1.77;;;;;;;22.72;48.64;100444.56;5031279;28;20030;-84
2022/09/20 14:00:24;;;;;;;5.72;1.52;;;;;;;22.84;48.60;100442.59;5032331;28;20046;-85
2022/09/20 14:03:02;;;;;;;7.93;1.35;;;;;;;22.73;48.81;100429.19;5032904;28;20053;-85
2022/09/20 14:05:52;;;;;;;6.18;1.38;;;;;;;22.77;48.41;100439.25;5034515;28;20117;-82
2022/09/20 14:08:43;;;;;;;7.25;1.60;;;;;;;22.81;48.17;100429.59;5035909;28;20026;-84
2022/09/20 14:11:25;;;;;;;5.15;1.17;;;;;;;22.82;48.08;100439.34;5036036;28;20042;-83
2022/09/20 14:13:58;;;;;;;4.25;1.10;;;;;;;22.99;47.54;100426.66;5033160;28;20052;-86
2022/09/20 14:16:59;;;;;;;3.70;1.20;;;;;;;23.05;46.55;100441.91;5032739;28;20050;-88
2022/09/20 14:20:20;;;;;;;3.47;1.23;;;;;;;22.84;46.89;100429.09;5028509;28;20571;-85
2022/09/20 14:22:49;;;;;;;2.35;1.15;;;;;;;22.81;46.38;100424.19;5026550;28;20097;-85
2022/09/20 14:26:10;;;;;;;3.63;1.38;;;;;;;22.81;46.88;100424.19;5028590;28;20046;-83
2022/09/20 14:29:39;;;;;;;5.30;0.90;;;;;;;23.05;46.09;100414.03;5013792;28;20042;-88
2022/09/20 14:32:21;;;;;;;4.15;1.08;;;;;;;22.96;45.44;100416.34;5015731;28;20042;-83
2022/09/20 14:35:18;;;;;;;3.45;0.90;;;;;;;22.93;46.03;100411.44;5013334;28;20038;-81
2022/09/20 14:38:39;;;;;;;8.50;1.20;;;;;;;22.80;45.35;100419.03;5014974;28;20034;-83
2022/09/20 14:41:12;;;;;;;11.88;1.20;;;;;;;22.59;46.16;100409.72;5011987;28;20069;-86
2022/09/20 14:43:57;;;;;;;3.90;1.17;;;;;;;22.59;45.86;100410.53;5000144;28;20034;-84
2022/09/20 14:49:25;;;;;;;11.10;1.27;;;;;;;22.79;45.39;100403.88;5017089;28;20072;-87
2022/09/20 14:51:53;;;;;;;4.22;1.27;;;;;;;22.90;45.23;100405.69;5017970;28;20030;-88
2022/09/20 14:54:29;;;;;;;6.13;1.20;;;;;;;22.94;45.05;100412.22;5009486;28;20019;-87
2022/09/20 14:56:57;;;;;;;4.20;1.08;;;;;;;22.73;45.77;100400.28;4983652;28;20026;-87
2022/09/20 14:59:36;;;;;;;3.17;1.30;;;;;;;22.97;44.09;100411.72;4998484;28;20114;-84
2022/09/20 15:02:20;;;;;;;5.35;1.30;;;;;;;22.97;43.37;100401.75;5040321;23;20050;-84
2022/09/20 15:05:02;;;;;;;3.17;1.00;;;;;;;22.73;44.43;100399.47;5027421;28;20397;-84
2022/09/20 15:07:27;;;;;;;4.82;1.45;;;;;;;22.84;43.64;100412.06;5014711;28;20041;-85
2022/09/20 15:09:59;;;;;;;5.45;1.35;;;;;;;22.90;43.40;100401.09;5027639;28;20405;-83
2022/09/20 15:12:28;;;;;;;6.15;1.10;;;;;;;22.93;42.07;100397.91;5027021;28;20041;-82
2022/09/20 15:15:03;;;;;;;6.55;1.23;;;;;;;22.56;43.37;100394.00;5023636;28;20029;-86
2022/09/20 15:17:28;;;;;;;3.53;0.82;;;;;;;22.54;44.10;100394.22;5019483;28;20030;-86
2022/09/20 15:19:54;;;;;;;4.95;1.73;;;;;;;22.71;44.28;100396.97;5019977;28;20040;-85
2022/09/20 15:22:26;;;;;;;4.63;1.27;;;;;;;22.91;44.63;100391.09;5021331;28;20068;-86
2022/09/20 15:24:54;;;;;;;3.88;1.08;;;;;;;22.71;45.76;100399.69;5022312;28;20033;-88
2022/09/20 15:27:26;;;;;;;4.47;1.30;;;;;;;22.67;45.43;100390.41;5018631;28;20030;-86
2022/09/20 15:30:06;;;;;;;5.22;1.10;;;;;;;22.88;44.66;100394.28;5018269;28;20105;-83
2022/09/20 15:32:41;;;;;;;6.60;1.02;;;;;;;22.76;45.62;100390.84;5028715;28;20060;-82
2022/09/20 15:35:15;;;;;;;8.77;0.90;;;;;;;22.98;44.67;100389.06;5026849;28;20101;-85
2022/09/20 15:37:52;;;;;;;4.90;1.10;;;;;;;23.06;43.97;100396.75;5027204;28;20026;-85
2022/09/20 15:40:20;;;;;;;6.65;1.00;;;;;;;22.77;44.66;100387.91;5023489;28;20045;-87
2022/09/20 15:43:00;;;;;;;2.55;1.10;;;;;;;22.95;43.51;100387.66;5025861;28;20040;-85
2022/09/20 15:45:38;;;;;;;5.05;1.13;;;;;;;22.77;44.08;100382.50;5030280;28;20038;-85
2022/09/20 15:48:05;;;;;;;4.50;1.20;;;;;;;22.67;44.72;100385.84;5022472;28;20519;-87
2022/09/20 15:51:10;;;;;;;2.13;0.85;;;;;;;22.71;44.92;100386.19;5017190;28;20041;-84
2022/09/20 15:53:43;;;;;;;5.47;1.10;;;;;;;22.63;45.65;100379.28;5017861;28;20049;-84
2022/09/20 15:56:32;;;;;;;4.32;1.15;;;;;;;22.62;45.33;100383.03;5018156;28;20064;-87
2022/09/20 15:59:00;;;;;;;6.60;1.30;;;;;;;22.89;44.07;100390.53;5008104;28;20034;-87
2022/09/20 16:01:38;;;;;;;7.47;1.30;;;;;;;22.73;43.44;100388.66;5007732;28;20045;-86
2022/09/20 16:04:22;;;;;;;8.55;1.55;;;;;;;22.68;43.71;100378.56;5021042;28;20030;-87
2022/09/20 16:06:52;;;;;;;8.50;1.55;;;;;;;22.72;43.89;100377.03;5017711;28;20035;-88
2022/09/20 16:09:44;;;;;;;3.35;0.95;;;;;;;22.95;44.57;100381.44;5017857;28;20043;-89
2022/09/20 16:12:12;;;;;;;5.78;1.38;;;;;;;22.78;45.01;100381.44;5015584;28;20109;-86
2022/09/20 16:14:38;;;;;;;4.43;1.10;;;;;;;22.86;45.39;100388.31;5015950;28;20045;-86
2022/09/20 16:17:18;;;;;;;5.95;1.02;;;;;;;22.76;45.27;100378.16;5014438;28;20023;-83
2022/09/20 16:19:57;;;;;;;7.22;1.40;;;;;;;22.76;45.23;100380.06;5015385;28;20054;-83
2022/09/20 16:22:33;;;;;;;11.50;1.33;;;;;;;22.79;44.62;100383.09;5012969;28;20125;-85
2022/09/20 16:25:18;;;;;;;4.43;1.35;;;;;;;22.45;46.47;100376.78;5006237;28;20414;-86
2022/09/20 16:27:44;;;;;;;3.78;1.17;;;;;;;22.65;46.53;100381.72;5014801;28;20050;-86
2022/09/20 16:30:13;;;;;;;9.15;1.73;;;;;;;22.60;48.19;100373.53;5013625;28;20034;-87
2022/09/20 16:32:49;;;;;;;4.13;1.20;;;;;;;22.49;48.63;100374.44;5012014;28;20035;-87
2022/09/20 16:35:19;;;;;;;5.18;1.20;;;;;;;22.49;48.92;100374.44;5012853;28;20038;-85
2022/09/20 16:37:48;;;;;;;6.95;1.60;;;;;;;22.63;47.44;100370.34;5008555;28;20049;-86
2022/09/20 16:40:17;;;;;;;7.82;1.27;;;;;;;22.41;48.26;100377.50;5004779;28;20046;-84
2022/09/20 16:42:46;;;;;;;7.00;1.38;;;;;;;22.48;48.62;100373.59;5023659;28;20045;-86
2022/09/20 16:45:15;;;;;;;7.30;1.58;;;;;;;22.53;48.06;100375.59;5054192;23;20105;-85
2022/09/20 16:47:40;;;;;;;4.97;1.50;;;;;;;22.35;48.87;100370.38;5027274;28;20042;-84
2022/09/20 16:50:07;;;;;;;7.28;1.45;;;;;;;22.35;49.84;100381.19;5011515;23;20061;-85
2022/09/20 16:52:32;;;;;;;9.82;1.17;;;;;;;22.24;50.79;100382.06;4972742;28;20043;-87
2022/09/20 16:55:03;;;;;;;10.07;1.65;;;;;;;22.05;51.93;100382.25;4987049;28;20494;-89
2022/09/20 16:57:30;;;;;;;10.25;2.28;;;;;;;22.32;51.36;100378.97;4982194;28;20055;-86
2022/09/20 16:59:57;;;;;;;12.07;1.95;;;;;;;22.20;52.26;100383.63;4984863;28;20167;-85
2022/09/20 17:02:26;;;;;;;5.95;1.83;;;;;;;22.33;51.89;100394.13;4983127;28;20122;-87
2022/09/20 17:04:55;;;;;;;7.18;1.70;;;;;;;22.28;52.05;100383.22;4986540;28;20049;-87
2022/09/20 17:07:24;;;;;;;8.48;1.58;;;;;;;22.04;53.24;100391.41;4987925;28;20035;-86
2022/09/20 17:12:40;;;;;;;8.63;1.10;;;;;;;22.13;52.89;100394.56;4983683;26;20034;-86
2022/09/20 17:18:57;;;;;;;8.13;1.40;;;;;;;21.86;53.63;100410.44;5030909;28;20121;-85
2022/09/20 17:21:42;;;;;;;7.23;1.33;;;;;;;21.73;53.97;100399.91;5029679;28;20080;-86
2022/09/20 17:24:15;;;;;;;3.50;1.35;;;;;;;21.61;54.60;100409.88;5024450;28;20087;-85
2022/09/20 17:26:44;;;;;;;5.72;1.00;;;;;;;21.60;54.67;100408.28;5020075;28;20057;-85
2022/09/20 17:29:16;;;;;;;4.97;1.23;;;;;;;21.75;53.59;100407.75;5023973;28;20034;-85
2022/09/20 17:31:58;;;;;;;5.00;1.15;;;;;;;21.70;53.43;100410.38;5010217;28;20042;-85
2022/09/20 17:34:26;;;;;;;4.05;1.10;;;;;;;21.40;54.90;100418.59;5029329;28;20061;-84
2022/09/20 17:36:54;;;;;;;4.55;1.23;;;;;;;21.37;55.26;100411.81;5020661;28;20031;-86
2022/09/20 17:39:20;;;;;;;7.60;1.60;;;;;;;21.54;54.76;100425.41;5021733;28;20040;-86
2022/09/20 17:41:49;;;;;;;4.07;1.10;;;;;;;21.25;55.88;100429.00;5029558;28;20049;-84
2022/09/20 17:44:18;;;;;;;8.57;1.70;;;;;;;21.50;54.85;100425.06;5044326;28;20492;-83
2022/09/20 17:46:45;;;;;;;5.93;1.80;;;;;;;21.34;55.32;100430.34;5042127;28;20037;-91
2022/09/20 17:49:13;;;;;;;7.00;1.60;;;;;;;21.27;55.75;100430.44;5039384;28;20117;-86
2022/09/20 17:51:44;;;;;;;6.03;1.63;;;;;;;21.27;55.85;100426.94;5036300;28;20489;-86
2022/09/20 17:54:15;;;;;;;9.73;1.65;;;;;;;21.27;55.79;100427.75;5005089;28;20038;-88
2022/09/20 17:56:45;;;;;;;7.45;1.65;;;;;;;21.09;56.77;100431.38;5012134;28;20057;-88